Wetterdaten: Mittwoch, 31.03.2010
Datum Zeit Temp. A. Feuchte A. Luftdruck Regen Wind Richtung Richtung Sonnenschein UV Solar Windben
31.03.2010 00:00 9,7 C 83 % 988,7 hPa 0,0 mm 0,0 km/h (0 Bft) S-SW 202 0 min 0 UV-I 0 W/m 3,2 km/h (1 Bft)
31.03.2010 00:10 9,6 C 84 % 994,4 hPa 0,0 mm 0,0 km/h (0 Bft) S-SW 202 0 min 0 UV-I 0 W/m 4,8 km/h (1 Bft)
31.03.2010 00:20 9,5 C 84 % 994,6 hPa 0,0 mm 1,6 km/h (1 Bft) S-SW 202 0 min 0 UV-I 0 W/m 6,4 km/h (2 Bft)
31.03.2010 00:30 9,6 C 83 % 989,0 hPa 0,0 mm 1,6 km/h (1 Bft) S-SW 202 0 min 0 UV-I 0 W/m 8,0 km/h (2 Bft)
31.03.2010 00:40 9,6 C 82 % 994,7 hPa 0,0 mm 4,8 km/h (1 Bft) SW 225 0 min 0 UV-I 0 W/m 12,9 km/h (3 Bft)
31.03.2010 00:50 9,7 C 80 % 994,8 hPa 0,0 mm 4,8 km/h (1 Bft) SW 225 0 min 0 UV-I 0 W/m 14,5 km/h (3 Bft)
31.03.2010 01:00 9,8 C 78 % 995,3 hPa 0,0 mm 8,0 km/h (2 Bft) SW 225 0 min 0 UV-I 0 W/m 32,2 km/h (5 Bft)
31.03.2010 01:10 9,6 C 75 % 995,8 hPa 0,0 mm 14,5 km/h (3 Bft) W-SW 247 0 min 0 UV-I 0 W/m 33,8 km/h (5 Bft)
31.03.2010 01:20 9,1 C 74 % 996,2 hPa 0,0 mm 14,5 km/h (3 Bft) W-SW 247 0 min 0 UV-I 0 W/m 35,4 km/h (5 Bft)
31.03.2010 01:30 8,5 C 76 % 996,5 hPa 0,0 mm 12,9 km/h (3 Bft) SW 225 0 min 0 UV-I 0 W/m 30,6 km/h (5 Bft)
31.03.2010 01:40 8,1 C 76 % 996,6 hPa 0,0 mm 12,9 km/h (3 Bft) W 270 0 min 0 UV-I 0 W/m 27,4 km/h (4 Bft)
31.03.2010 01:50 7,8 C 76 % 997,0 hPa 0,0 mm 12,9 km/h (3 Bft) W-SW 247 0 min 0 UV-I 0 W/m 27,4 km/h (4 Bft)
31.03.2010 02:00 7,6 C 76 % 997,2 hPa 0,0 mm 11,3 km/h (2 Bft) W-SW 247 0 min 0 UV-I 0 W/m 29,0 km/h (5 Bft)
31.03.2010 02:10 7,5 C 77 % 997,5 hPa 0,0 mm 8,0 km/h (2 Bft) W 270 0 min 0 UV-I 0 W/m 22,5 km/h (4 Bft)
31.03.2010 02:20 7,4 C 76 % 997,6 hPa 0,0 mm 11,3 km/h (2 Bft) W-SW 247 0 min 0 UV-I 0 W/m 25,7 km/h (4 Bft)
31.03.2010 02:30 7,3 C 75 % 997,7 hPa 0,0 mm 8,0 km/h (2 Bft) W 270 0 min 0 UV-I 0 W/m 22,5 km/h (4 Bft)
31.03.2010 02:40 7,2 C 76 % 997,8 hPa 0,0 mm 9,7 km/h (2 Bft) W-SW 247 0 min 0 UV-I 0 W/m 22,5 km/h (4 Bft)
31.03.2010 02:50 7,2 C 75 % 998,0 hPa 0,0 mm 9,7 km/h (2 Bft) W-SW 247 0 min 0 UV-I 0 W/m 27,4 km/h (4 Bft)
31.03.2010 03:00 7,1 C 74 % 998,0 hPa 0,0 mm 11,3 km/h (2 Bft) W-SW 247 0 min 0 UV-I 0 W/m 25,7 km/h (4 Bft)
31.03.2010 03:10 6,8 C 74 % 998,0 hPa 0,0 mm 8,0 km/h (2 Bft) W-SW 247 0 min 0 UV-I 0 W/m 20,9 km/h (4 Bft)
31.03.2010 03:20 6,6 C 75 % 998,0 hPa 0,0 mm 4,8 km/h (1 Bft) W 270 0 min 0 UV-I 0 W/m 14,5 km/h (3 Bft)
31.03.2010 03:30 6,3 C 76 % 998,0 hPa 0,0 mm 3,2 km/h (1 Bft) W-SW 247 0 min 0 UV-I 0 W/m 9,7 km/h (2 Bft)
31.03.2010 03:40 6,1 C 77 % 997,8 hPa 0,0 mm 0,0 km/h (0 Bft) W-SW 247 0 min 0 UV-I 0 W/m 4,8 km/h (1 Bft)
31.03.2010 03:50 5,8 C 78 % 997,8 hPa 0,0 mm 0,0 km/h (0 Bft) W-SW 247 0 min 0 UV-I 0 W/m 4,8 km/h (1 Bft)
31.03.2010 04:00 5,5 C 79 % 997,9 hPa 0,0 mm 0,0 km/h (0 Bft) W-SW 247 0 min 0 UV-I 0 W/m 3,2 km/h (1 Bft)
31.03.2010 04:10 5,2 C 79 % 997,9 hPa 0,0 mm 0,0 km/h (0 Bft) SW 225 0 min 0 UV-I 0 W/m 1,6 km/h (1 Bft)
31.03.2010 04:20 4,5 C 82 % 998,0 hPa 0,0 mm 0,0 km/h (0 Bft) SW 225 0 min 0 UV-I 0 W/m 3,2 km/h (1 Bft)
31.03.2010 04:30 4,3 C 83 % 998,0 hPa 0,0 mm 0,0 km/h (0 Bft) S-SW 202 0 min 0 UV-I 0 W/m 1,6 km/h (1 Bft)
31.03.2010 04:40 4,4 C 81 % 992,3 hPa 0,0 mm 0,0 km/h (0 Bft) N 0 0 min 0 UV-I 0 W/m 0,0 km/h (0 Bft)
31.03.2010 04:50 4,2 C 82 % 998,0 hPa 0,0 mm 0,0 km/h (0 Bft) S-SW 202 0 min 0 UV-I 0 W/m 1,6 km/h (1 Bft)
31.03.2010 05:00 3,9 C 83 % 998,0 hPa 0,0 mm 0,0 km/h (0 Bft) S-SW 202 0 min 0 UV-I 0 W/m 1,6 km/h (1 Bft)
31.03.2010 05:10 3,9 C 83 % 998,1 hPa 0,0 mm 0,0 km/h (0 Bft) S-SW 202 0 min 0 UV-I 0 W/m 3,2 km/h (1 Bft)
31.03.2010 05:20 4,1 C 82 % 996,4 hPa 0,0 mm 0,0 km/h (0 Bft) S-SW 202 0 min 0 UV-I 0 W/m 4,8 km/h (1 Bft)
31.03.2010 05:30 4,1 C 82 % 995,2 hPa 0,0 mm 0,0 km/h (0 Bft) S-SW 202 0 min 0 UV-I 0 W/m 4,8 km/h (1 Bft)
31.03.2010 05:40 4,2 C 81 % 995,2 hPa 0,0 mm 0,0 km/h (0 Bft) S-SW 202 0 min 0 UV-I 0 W/m 4,8 km/h (1 Bft)
31.03.2010 05:50 4,0 C 81 % 995,2 hPa 0,0 mm 0,0 km/h (0 Bft) S-SW 202 0 min 0 UV-I 0 W/m 3,2 km/h (1 Bft)
31.03.2010 06:00 3,8 C 82 % 997,7 hPa 0,0 mm 0,0 km/h (0 Bft) S-SW 202 0 min 0 UV-I 0 W/m 3,2 km/h (1 Bft)
31.03.2010 06:10 3,7 C 82 % 998,1 hPa 0,0 mm 0,0 km/h (0 Bft) S-SW 202 0 min 0 UV-I 0 W/m 3,2 km/h (1 Bft)
31.03.2010 06:20 3,6 C 83 % 997,0 hPa 0,0 mm 0,0 km/h (0 Bft) N 0 0 min 0 UV-I 0 W/m 0,0 km/h (0 Bft)
31.03.2010 06:30 3,7 C 83 % 998,3 hPa 0,0 mm 0,0 km/h (0 Bft) S-SW 202 0 min 0 UV-I 0 W/m 4,8 km/h (1 Bft)
31.03.2010 06:40 4,2 C 81 % 998,0 hPa 0,0 mm 0,0 km/h (0 Bft) S-SW 202 0 min 0 UV-I 0 W/m 4,8 km/h (1 Bft)
31.03.2010 06:50 4,6 C 80 % 998,1 hPa 0,0 mm 1,6 km/h (1 Bft) S-SW 202 0 min 0 UV-I 0 W/m 8,0 km/h (2 Bft)
31.03.2010 07:00 5,1 C 78 % 998,2 hPa 0,0 mm 3,2 km/h (1 Bft) S-SW 202 0 min 0 UV-I 0 W/m 14,5 km/h (3 Bft)
31.03.2010 07:10 5,4 C 77 % 998,3 hPa 0,0 mm 3,2 km/h (1 Bft) SW 225 0 min 0 UV-I 0 W/m 9,7 km/h (2 Bft)
31.03.2010 07:20 5,4 C 77 % 998,5 hPa 0,0 mm 1,6 km/h (1 Bft) SW 225 0 min 0 UV-I 7 W/m 9,7 km/h (2 Bft)
31.03.2010 07:30 5,3 C 77 % 998,6 hPa 0,0 mm 3,2 km/h (1 Bft) S-SW 202 0 min 0 UV-I 12 W/m 11,3 km/h (2 Bft)
31.03.2010 07:40 5,4 C 77 % 998,7 hPa 0,0 mm 1,6 km/h (1 Bft) SW 225 0 min 0 UV-I 21 W/m 11,3 km/h (2 Bft)
31.03.2010 07:50 5,5 C 76 % 993,0 hPa 0,0 mm 1,6 km/h (1 Bft) SW 225 0 min 0 UV-I 54 W/m 6,4 km/h (2 Bft)
31.03.2010 08:00 5,6 C 77 % 998,7 hPa 0,0 mm 1,6 km/h (1 Bft) SW 232 0 min 0 UV-I 54 W/m 6,4 km/h (2 Bft)
31.03.2010 08:10 5,7 C 77 % 998,8 hPa 0,0 mm 1,6 km/h (1 Bft) S-SW 202 10 min 0 UV-I 105 W/m 8,0 km/h (2 Bft)
31.03.2010 08:20 5,9 C 75 % 998,8 hPa 0,0 mm 3,2 km/h (1 Bft) S-SW 202 10 min 0 UV-I 128 W/m 12,9 km/h (3 Bft)
31.03.2010 08:30 6,2 C 75 % 997,5 hPa 0,0 mm 3,2 km/h (1 Bft) S 180 10 min 1 UV-I 167 W/m 9,7 km/h (2 Bft)
31.03.2010 08:40 6,7 C 73 % 997,8 hPa 0,0 mm 3,2 km/h (1 Bft) S-SW 202 10 min 1 UV-I 197 W/m 14,5 km/h (3 Bft)
31.03.2010 08:50 7,0 C 72 % 998,8 hPa 0,0 mm 3,2 km/h (1 Bft) S-SW 202 10 min 1 UV-I 221 W/m 14,5 km/h (3 Bft)
31.03.2010 09:00 7,4 C 70 % 998,8 hPa 0,0 mm 3,2 km/h (1 Bft) S-SW 202 10 min 1 UV-I 253 W/m 20,9 km/h (4 Bft)
31.03.2010 09:10 7,9 C 71 % 998,8 hPa 0,0 mm 1,6 km/h (1 Bft) S-SO 157 10 min 1 UV-I 283 W/m 8,0 km/h (2 Bft)
31.03.2010 09:20 7,9 C 73 % 998,8 hPa 0,0 mm 3,2 km/h (1 Bft) SO 135 10 min 1 UV-I 329 W/m 14,5 km/h (3 Bft)
31.03.2010 09:30 8,3 C 67 % 998,7 hPa 0,0 mm 4,8 km/h (1 Bft) S 180 10 min 1 UV-I 332 W/m 16,1 km/h (3 Bft)
31.03.2010 09:40 8,7 C 65 % 998,7 hPa 0,0 mm 4,8 km/h (1 Bft) S-SW 202 10 min 1 UV-I 373 W/m 19,3 km/h (3 Bft)
31.03.2010 09:50 8,9 C 64 % 998,6 hPa 0,0 mm 4,8 km/h (1 Bft) S-SW 202 10 min 1 UV-I 410 W/m 20,9 km/h (4 Bft)
31.03.2010 10:00 9,1 C 63 % 998,7 hPa 0,0 mm 4,8 km/h (1 Bft) S-SW 202 10 min 2 UV-I 459 W/m 17,7 km/h (3 Bft)
31.03.2010 10:10 9,4 C 61 % 998,6 hPa 0,0 mm 4,8 km/h (1 Bft) S-SW 202 10 min 2 UV-I 487 W/m 16,1 km/h (3 Bft)
31.03.2010 10:20 9,5 C 59 % 998,6 hPa 0,0 mm 6,4 km/h (2 Bft) S-SW 202 10 min 2 UV-I 531 W/m 29,0 km/h (5 Bft)
31.03.2010 10:30 9,3 C 61 % 998,6 hPa 0,0 mm 6,4 km/h (2 Bft) SW 225 0 min 1 UV-I 251 W/m 24,1 km/h (4 Bft)
31.03.2010 10:40 9,4 C 59 % 998,7 hPa 0,0 mm 4,8 km/h (1 Bft) SW 225 0 min 2 UV-I 213 W/m 22,5 km/h (4 Bft)
31.03.2010 10:50 9,7 C 56 % 998,7 hPa 0,0 mm 8,0 km/h (2 Bft) SW 225 10 min 2 UV-I 341 W/m 24,1 km/h (4 Bft)
31.03.2010 11:00 9,7 C 57 % 998,7 hPa 0,0 mm 9,7 km/h (2 Bft) SW 225 0 min 2 UV-I 294 W/m 27,4 km/h (4 Bft)
31.03.2010 11:10 9,5 C 58 % 998,8 hPa 0,0 mm 11,3 km/h (2 Bft) SW 225 0 min 1 UV-I 204 W/m 25,7 km/h (4 Bft)
31.03.2010 11:20 9,4 C 58 % 998,6 hPa 0,0 mm 8,0 km/h (2 Bft) SW 225 10 min 2 UV-I 327 W/m 19,3 km/h (3 Bft)
31.03.2010 11:30 9,8 C 57 % 998,6 hPa 0,0 mm 8,0 km/h (2 Bft) W-SW 247 10 min 3 UV-I 712 W/m 25,7 km/h (4 Bft)
31.03.2010 11:40 10,1 C 54 % 998,5 hPa 0,0 mm 12,9 km/h (3 Bft) S-SW 202 10 min 3 UV-I 759 W/m 32,2 km/h (5 Bft)
31.03.2010 11:50 10,1 C 56 % 998,5 hPa 0,0 mm 9,7 km/h (2 Bft) SW 225 10 min 3 UV-I 431 W/m 27,4 km/h (4 Bft)
31.03.2010 12:00 10,4 C 55 % 998,3 hPa 0,0 mm 9,7 km/h (2 Bft) SW 225 10 min 3 UV-I 833 W/m 20,9 km/h (4 Bft)
31.03.2010 12:10 10,9 C 54 % 998,2 hPa 0,0 mm 11,3 km/h (2 Bft) SW 225 10 min 4 UV-I 926 W/m 29,0 km/h (5 Bft)
31.03.2010 12:20 11,3 C 54 % 998,2 hPa 0,0 mm 11,3 km/h (2 Bft) S-SW 202 10 min 4 UV-I 907 W/m 24,1 km/h (4 Bft)
31.03.2010 12:30 11,5 C 53 % 998,3 hPa 0,0 mm 11,3 km/h (2 Bft) SW 225 10 min 4 UV-I 807 W/m 29,0 km/h (5 Bft)
31.03.2010 12:40 10,9 C 53 % 998,2 hPa 0,0 mm 14,5 km/h (3 Bft) SW 225 0 min 4 UV-I 237 W/m 33,8 km/h (5 Bft)
31.03.2010 12:50 10,9 C 51 % 998,1 hPa 0,0 mm 12,9 km/h (3 Bft) SW 225 10 min 4 UV-I 777 W/m 32,2 km/h (5 Bft)
31.03.2010 13:00 11,4 C 52 % 998,1 hPa 0,0 mm 9,7 km/h (2 Bft) SW 225 10 min 3 UV-I 703 W/m 25,7 km/h (4 Bft)
31.03.2010 13:10 11,7 C 49 % 998,1 hPa 0,0 mm 9,7 km/h (2 Bft) S-SW 202 10 min 4 UV-I 740 W/m 22,5 km/h (4 Bft)
31.03.2010 13:20 11,9 C 47 % 998,1 hPa 0,0 mm 12,9 km/h (3 Bft) W-SW 247 10 min 4 UV-I 798 W/m 40,2 km/h (6 Bft)
31.03.2010 13:30 12,1 C 48 % 998,2 hPa 0,0 mm 11,3 km/h (2 Bft) SW 225 10 min 4 UV-I 759 W/m 27,4 km/h (4 Bft)
31.03.2010 13:40 12,3 C 47 % 998,0 hPa 0,0 mm 11,3 km/h (2 Bft) SW 225 10 min 4 UV-I 766 W/m 24,1 km/h (4 Bft)
31.03.2010 13:50 12,6 C 46 % 997,9 hPa 0,0 mm 9,7 km/h (2 Bft) S-SW 202 10 min 4 UV-I 789 W/m 22,5 km/h (4 Bft)
31.03.2010 14:00 12,8 C 43 % 997,9 hPa 0,0 mm 11,3 km/h (2 Bft) S-SW 202 10 min 4 UV-I 816 W/m 32,2 km/h (5 Bft)
31.03.2010 14:10 12,8 C 43 % 997,9 hPa 0,0 mm 11,3 km/h (2 Bft) W-SW 247 10 min 4 UV-I 803 W/m 30,6 km/h (5 Bft)
31.03.2010 14:20 12,7 C 44 % 997,9 hPa 0,0 mm 12,9 km/h (3 Bft) SW 225 10 min 4 UV-I 758 W/m 37,0 km/h (5 Bft)
31.03.2010 14:30 12,6 C 44 % 997,8 hPa 0,0 mm 11,3 km/h (2 Bft) S-SW 202 10 min 3 UV-I 854 W/m 27,4 km/h (4 Bft)
31.03.2010 14:40 13,1 C 43 % 997,6 hPa 0,0 mm 11,3 km/h (2 Bft) S-SW 202 10 min 3 UV-I 823 W/m 27,4 km/h (4 Bft)
31.03.2010 14:50 13,1 C 45 % 997,7 hPa 0,0 mm 9,7 km/h (2 Bft) SW 225 10 min 3 UV-I 858 W/m 35,4 km/h (5 Bft)
31.03.2010 15:00 13,3 C 43 % 997,7 hPa 0,0 mm 12,9 km/h (3 Bft) SW 225 10 min 3 UV-I 847 W/m 33,8 km/h (5 Bft)
31.03.2010 15:10 13,2 C 43 % 992,0 hPa 0,0 mm 12,9 km/h (3 Bft) SW 225 10 min 3 UV-I 911 W/m 35,4 km/h (5 Bft)
31.03.2010 15:20 13,4 C 43 % 992,1 hPa 0,0 mm 11,3 km/h (2 Bft) S-SW 202 10 min 3 UV-I 875 W/m 24,1 km/h (4 Bft)
31.03.2010 15:30 13,2 C 45 % 997,7 hPa 0,0 mm 9,7 km/h (2 Bft) SW 225 10 min 3 UV-I 759 W/m 24,1 km/h (4 Bft)
31.03.2010 15:40 12,7 C 44 % 992,0 hPa 0,0 mm 11,3 km/h (2 Bft) SW 225 10 min 3 UV-I 788 W/m 25,7 km/h (4 Bft)
31.03.2010 15:50 13,1 C 44 % 997,6 hPa 0,0 mm 11,3 km/h (2 Bft) SW 225 10 min 3 UV-I 714 W/m 24,1 km/h (4 Bft)
31.03.2010 16:00 12,8 C 44 % 991,8 hPa 0,0 mm 12,3 km/h (3 Bft) S-SW 194 10 min 2 UV-I 367 W/m 24,1 km/h (4 Bft)
31.03.2010 16:10 12,8 C 43 % 997,5 hPa 0,0 mm 9,7 km/h (2 Bft) SW 225 10 min 2 UV-I 575 W/m 24,1 km/h (4 Bft)
31.03.2010 16:20 12,7 C 43 % 997,4 hPa 0,0 mm 9,7 km/h (2 Bft) SW 225 10 min 2 UV-I 642 W/m 25,7 km/h (4 Bft)
31.03.2010 16:30 13,1 C 42 % 997,4 hPa 0,0 mm 12,9 km/h (3 Bft) S-SW 202 10 min 2 UV-I 589 W/m 29,0 km/h (5 Bft)
31.03.2010 16:40 13,2 C 41 % 997,4 hPa 0,0 mm 11,3 km/h (2 Bft) S-SW 202 10 min 2 UV-I 622 W/m 27,4 km/h (4 Bft)
31.03.2010 16:50 13,3 C 40 % 997,4 hPa 0,0 mm 11,3 km/h (2 Bft) W-SW 247 10 min 2 UV-I 563 W/m 29,0 km/h (5 Bft)
31.03.2010 17:00 12,8 C 42 % 997,4 hPa 0,0 mm 9,7 km/h (2 Bft) SW 225 0 min 1 UV-I 153 W/m 22,5 km/h (4 Bft)
31.03.2010 17:10 12,6 C 42 % 1000,7 hPa 0,0 mm 6,4 km/h (2 Bft) S-SW 202 0 min 1 UV-I 192 W/m 20,9 km/h (4 Bft)
31.03.2010 17:20 13,0 C 40 % 997,2 hPa 0,0 mm 9,7 km/h (2 Bft) SW 225 10 min 1 UV-I 526 W/m 24,1 km/h (4 Bft)
31.03.2010 17:30 13,1 C 42 % 997,1 hPa 0,0 mm 11,3 km/h (2 Bft) SW 225 10 min 1 UV-I 534 W/m 27,4 km/h (4 Bft)
31.03.2010 17:40 12,8 C 44 % 997,3 hPa 0,0 mm 11,3 km/h (2 Bft) SW 225 10 min 1 UV-I 425 W/m 25,7 km/h (4 Bft)
31.03.2010 17:50 12,8 C 41 % 997,4 hPa 0,0 mm 9,7 km/h (2 Bft) S-SW 202 10 min 1 UV-I 390 W/m 24,1 km/h (4 Bft)
31.03.2010 18:00 12,7 C 40 % 997,3 hPa 0,0 mm 8,0 km/h (2 Bft) S-SW 202 10 min 1 UV-I 334 W/m 20,9 km/h (4 Bft)
31.03.2010 18:10 12,7 C 41 % 997,3 hPa 0,0 mm 9,7 km/h (2 Bft) SW 225 10 min 1 UV-I 301 W/m 30,6 km/h (5 Bft)
31.03.2010 18:20 12,5 C 42 % 997,3 hPa 0,0 mm 8,0 km/h (2 Bft) SW 225 10 min 1 UV-I 272 W/m 25,7 km/h (4 Bft)
31.03.2010 18:30 12,6 C 43 % 1000,9 hPa 0,0 mm 8,0 km/h (2 Bft) S-SW 202 10 min 1 UV-I 234 W/m 20,9 km/h (4 Bft)
31.03.2010 18:40 12,2 C 46 % 997,6 hPa 0,0 mm 6,4 km/h (2 Bft) S-SW 202 10 min 1 UV-I 192 W/m 20,9 km/h (4 Bft)
31.03.2010 18:50 11,6 C 48 % 997,8 hPa 0,0 mm 4,8 km/h (1 Bft) SW 225 0 min 0 UV-I 30 W/m 16,1 km/h (3 Bft)
31.03.2010 19:00 11,3 C 47 % 997,9 hPa 0,0 mm 6,4 km/h (2 Bft) SW 225 0 min 0 UV-I 25 W/m 24,1 km/h (4 Bft)
31.03.2010 19:10 11,0 C 52 % 998,4 hPa 0,0 mm 14,5 km/h (3 Bft) W-SW 247 0 min 0 UV-I 58 W/m 32,2 km/h (5 Bft)
31.03.2010 19:20 10,1 C 56 % 998,7 hPa 0,0 mm 12,9 km/h (3 Bft) W-SW 247 0 min 0 UV-I 14 W/m 29,0 km/h (5 Bft)
31.03.2010 19:30 9,4 C 59 % 999,3 hPa 0,0 mm 11,3 km/h (2 Bft) W-SW 247 0 min 0 UV-I 9 W/m 41,8 km/h (6 Bft)
31.03.2010 19:40 8,3 C 75 % 1000,0 hPa 0,0 mm 16,1 km/h (3 Bft) SW 225 0 min 0 UV-I 0 W/m 37,0 km/h (5 Bft)
31.03.2010 19:50 6,4 C 82 % 999,3 hPa 0,3 mm 8,0 km/h (2 Bft) SW 225 0 min 0 UV-I 0 W/m 24,1 km/h (4 Bft)
31.03.2010 20:00 6,0 C 83 % 999,5 hPa 0,0 mm 1,6 km/h (1 Bft) SW 225 0 min 0 UV-I 0 W/m 9,7 km/h (2 Bft)
31.03.2010 20:10 5,9 C 83 % 999,5 hPa 0,0 mm 1,6 km/h (1 Bft) S-SW 202 0 min 0 UV-I 0 W/m 8,0 km/h (2 Bft)
31.03.2010 20:20 5,9 C 84 % 999,5 hPa 0,0 mm 0,0 km/h (0 Bft) S 180 0 min 0 UV-I 0 W/m 4,8 km/h (1 Bft)
31.03.2010 20:30 5,7 C 84 % 997,9 hPa 0,0 mm 1,6 km/h (1 Bft) S 180 0 min 0 UV-I 0 W/m 6,4 km/h (2 Bft)
31.03.2010 20:40 5,8 C 84 % 999,7 hPa 0,0 mm 1,6 km/h (1 Bft) S 180 0 min 0 UV-I 0 W/m 8,0 km/h (2 Bft)
31.03.2010 20:50 6,0 C 83 % 999,3 hPa 0,0 mm 1,6 km/h (1 Bft) S-SO 157 0 min 0 UV-I 0 W/m 6,4 km/h (2 Bft)
31.03.2010 21:00 6,2 C 81 % 998,6 hPa 0,0 mm 1,6 km/h (1 Bft) S 180 0 min 0 UV-I 0 W/m 6,4 km/h (2 Bft)
31.03.2010 21:10 6,4 C 80 % 1000,1 hPa 0,0 mm 3,2 km/h (1 Bft) SW 225 0 min 0 UV-I 0 W/m 9,7 km/h (2 Bft)
31.03.2010 21:20 6,5 C 79 % 998,0 hPa 0,0 mm 8,0 km/h (2 Bft) SW 225 0 min 0 UV-I 0 W/m 25,7 km/h (4 Bft)
31.03.2010 21:30 6,3 C 77 % 998,1 hPa 0,0 mm 7,8 km/h (2 Bft) S-SW 198 0 min 0 UV-I 0 W/m 19,3 km/h (3 Bft)
31.03.2010 21:40 6,1 C 77 % 1000,5 hPa 0,0 mm 11,5 km/h (2 Bft) SW 221 0 min 0 UV-I 0 W/m 29,0 km/h (5 Bft)
31.03.2010 21:50 5,9 C 78 % 1000,4 hPa 0,0 mm 9,6 km/h (2 Bft) W-SW 237 0 min 0 UV-I 0 W/m 24,1 km/h (4 Bft)
31.03.2010 22:00 5,8 C 78 % 997,3 hPa 0,0 mm 7,6 km/h (2 Bft) SW 216 0 min 0 UV-I 0 W/m 32,2 km/h (5 Bft)
31.03.2010 22:10 5,7 C 79 % 999,7 hPa 0,0 mm 5,5 km/h (1 Bft) S-SW 201 0 min 0 UV-I 0 W/m 16,1 km/h (3 Bft)
31.03.2010 22:20 5,4 C 80 % 998,9 hPa 0,0 mm 4,4 km/h (1 Bft) SW 223 0 min 0 UV-I 0 W/m 14,5 km/h (3 Bft)
31.03.2010 22:30 5,2 C 81 % 997,2 hPa 0,0 mm 2,0 km/h (1 Bft) S-SW 203 0 min 0 UV-I 0 W/m 9,7 km/h (2 Bft)
31.03.2010 22:40 5,2 C 80 % 998,5 hPa 0,0 mm 1,6 km/h (1 Bft) S 183 0 min 0 UV-I 0 W/m 8,0 km/h (2 Bft)
31.03.2010 22:50 5,3 C 80 % 999,8 hPa 0,0 mm 1,6 km/h (1 Bft) S-SW 202 0 min 0 UV-I 0 W/m 8,0 km/h (2 Bft)
31.03.2010 23:00 5,3 C 79 % 999,9 hPa 0,0 mm 1,6 km/h (1 Bft) S-SW 202 0 min 0 UV-I 0 W/m 9,7 km/h (2 Bft)
31.03.2010 23:10 5,2 C 79 % 1000,8 hPa 0,0 mm 1,6 km/h (1 Bft) S-SW 202 0 min 0 UV-I 0 W/m 11,3 km/h (2 Bft)
31.03.2010 23:20 5,2 C 78 % 1000,9 hPa 0,0 mm 3,2 km/h (1 Bft) SW 225 0 min 0 UV-I 0 W/m 11,3 km/h (2 Bft)
31.03.2010 23:30 5,4 C 78 % 998,7 hPa 0,0 mm 3,2 km/h (1 Bft) SW 225 0 min 0 UV-I 0 W/m 11,3 km/h (2 Bft)
31.03.2010 23:40 5,4 C 78 % 999,6 hPa 0,0 mm 1,6 km/h (1 Bft) SW 225 0 min 0 UV-I 0 W/m 9,7 km/h (2 Bft)
31.03.2010 23:50 5,3 C 78 % 1000,9 hPa 0,0 mm 1,6 km/h (1 Bft) SW 225 0 min 0 UV-I 0 W/m 11,3 km/h (2 Bft)
_ Min-Zeit 06:20 16:50 00:00 - 00:00 - - - - - 04:40
Minimum _ 3,6 C 40 % 988,7 hPa - 0,0 km/h (0 Bft) - - - - - 0,0 km/h (0 Bft)
_ Max-Zeit 15:20 00:10 18:30 19:50 19:40 - - 08:10 12:10 12:10 19:30
Maximum _ 13,7 C 84 % 1000,9 hPa 0,3 mm 16,1 km/h
SW (3 Bft)
- - 10 min 4 UV-I 926 W/m 41,8 km/h
W-SW (6 Bft)
Durchschnitt _ 8,5 C 66 % 997,7 hPa #0,3 mm 6,4 km/h (2 Bft) SW - #9:30 h 2 UV-I 457 W/m 18,5 km/h (3 Bft)